Главная страница
METAR-TAF:

METAR-TAF

Аэропорты :

Закаталы, Азербайджан

Парзиван

широта: 41-33-44N, долгота: 46-40-02E, высота над уровнем моря: 330 м

Текущие метеонаблюдения

Эта сводка был подготовлена 40 минут назад, в 16:00 UTC
Ветер 5 Узел от северо-восточный
Температура 29°C
Влажность 35%
Давление 1011 hPa
Видимость 10 км и более
Отдельные облака на высоте 5500 фута, Кучево-дождевые.
Рассеянная облачность на высоте 6000 фута

METAR: UBBY 231600Z 05005KT 9999 SCT055CB BKN060 29/12 Q1011 R33/////// NOSIG RMK MT OP

Время: 20:40 (16:40 UTC)

Прогноз

Эта сводка был подготовлена 2 часа и 40 минут назад, в 14:00 UTC
Прогноз действительный с 23-го 15 UTC до 23-го 24 UTC
Ветер 4 Узел переменных направлений
Видимость 10 км и более
небольшая облачность на высоте 5000 фута
Отдельные облака на высоте 8000 фута

TAF: UBBY 231400Z 2315/2324 VRB04KT 9999 FEW050 SCT080

Метеонаблюдения и прогнозы для более 4000 аэропортов (сводки METAR и TAF).

Имеющиеся станции представлены на карте желтыми и красными точками.

Чтобы увидеть название станции, наведите на нее мышь.

Затем щелкните, чтобы увидеть метеонаблюдения и метеопрогнозы.

Управление картой: чтобы увеличить масштаб, щелкните зеленые кнопки с черным крестиком; чтобы уменьшить масштаб, щелкните зеленую кнопку с тире; для просмотра соседних карт щелкайте зеленые стрелки.


METAR-TAF: